Canonsburg, PA (15317)

3:43 AM EDT on August 28, 2016 (GMT -0400)
| | Change Station

Elev -9999 ft 0.00 °N, 0.00 °E | Updated

Mostly Cloudy
Mostly Cloudy
71 °F
Feels Like 71 °F
N
2
Wind Variable Wind from SSE
Gusts mph

Today
High -- | Low -- °F
--% Chance of Precip.
Yesterday
High -- | Low -- °F
Precip. -- in
Pressure 30.18 in
Visibility 1.8 miles
Clouds Clear
Dew Point 67 °F
Humidity 86%
Rainfall --
Snow Depth Not available.
6:44 AM 7:57 PM
Waning Crescent, 17% visible
METAR KAFJ 280735Z AUTO 00000KT 1 3/4SM CLR 21/19 A3018 RMK AO1 VIS 1V5
Pressure 30.18 in
Visibility 1.8 miles
Clouds Clear
Dew Point 67 °F
Humidity 86%
Rainfall --
Snow Depth Not available.
6:44 AM 7:57 PM
Waning Crescent, 17% visible
METAR KAFJ 280735Z AUTO 00000KT 1 3/4SM CLR 21/19 A3018 RMK AO1 VIS 1V5

10-Day Weather Forecast

Almanac

Astronomy

Aug. 28, 2016 Rise Set
Actual Time
Civil Twilight
Nautical Twilight
Astronomical Twilight
Moon
Length of Visible Light
Length of Day
Tomorrow will be .
, % of the Moon is Illuminated

Today's Extremes

State Highs State Lows

Community

WunderPhotos

Upload Photos

1,935,533 photos uploaded!

WunderBlog® & News

Nearby

Air Quality

  Air Quality AQ Index Pollutant
Not available.

Snow Depth

Station Depth Elevation

Earthquake Activity

City Distance Mag. Time & Date
Minimum magnitude displayed is 2.5.

Coastal Water Temperatures

Place Temperature

Stations

Nearby Weather Stations

Station Location Temp. Windchill Dew Point Humidity Wind Precip. Elev Updated Type
                   

Watches & Warnings

There are currently no watches in effect.